sensor_id;sensor_type;location;lat;lon;timestamp;P1;durP1;ratioP1;P2;durP2;ratioP2
3967;SDS011;9221;42.646;23.380;2022-08-16T00:01:50;11.27;;;6.40;;
3967;SDS011;9221;42.646;23.380;2022-08-16T00:04:15;13.27;;;6.53;;
3967;SDS011;9221;42.646;23.380;2022-08-16T00:06:41;14.90;;;6.80;;
3967;SDS011;9221;42.646;23.380;2022-08-16T00:09:08;14.10;;;6.90;;
3967;SDS011;9221;42.646;23.380;2022-08-16T00:11:34;10.47;;;6.10;;
3967;SDS011;9221;42.646;23.380;2022-08-16T00:14:00;12.30;;;6.97;;
3967;SDS011;9221;42.646;23.380;2022-08-16T00:16:28;11.90;;;6.33;;
3967;SDS011;9221;42.646;23.380;2022-08-16T00:18:56;12.83;;;6.63;;
3967;SDS011;9221;42.646;23.380;2022-08-16T00:21:22;13.40;;;6.53;;
3967;SDS011;9221;42.646;23.380;2022-08-16T00:23:48;13.50;;;7.00;;
3967;SDS011;9221;42.646;23.380;2022-08-16T00:26:13;13.33;;;6.17;;
3967;SDS011;9221;42.646;23.380;2022-08-16T00:28:39;11.13;;;6.10;;
3967;SDS011;9221;42.646;23.380;2022-08-16T00:31:04;14.20;;;7.10;;
3967;SDS011;9221;42.646;23.380;2022-08-16T00:33:30;12.13;;;6.10;;
3967;SDS011;9221;42.646;23.380;2022-08-16T00:35:55;12.43;;;6.50;;
3967;SDS011;9221;42.646;23.380;2022-08-16T00:38:20;12.77;;;6.90;;
3967;SDS011;9221;42.646;23.380;2022-08-16T00:40:48;16.13;;;7.07;;
3967;SDS011;9221;42.646;23.380;2022-08-16T00:43:19;16.07;;;6.40;;
3967;SDS011;9221;42.646;23.380;2022-08-16T00:45:58;18.30;;;6.70;;
3967;SDS011;9221;42.646;23.380;2022-08-16T00:48:25;15.53;;;7.23;;
3967;SDS011;9221;42.646;23.380;2022-08-16T00:50:52;10.43;;;6.30;;
3967;SDS011;9221;42.646;23.380;2022-08-16T00:53:17;14.33;;;6.87;;
3967;SDS011;9221;42.646;23.380;2022-08-16T00:55:45;15.30;;;6.57;;
3967;SDS011;9221;42.646;23.380;2022-08-16T00:58:12;16.47;;;5.93;;
3967;SDS011;9221;42.646;23.380;2022-08-16T01:00:40;13.67;;;6.97;;
3967;SDS011;9221;42.646;23.380;2022-08-16T01:03:07;13.00;;;7.27;;
3967;SDS011;9221;42.646;23.380;2022-08-16T01:05:36;15.73;;;7.17;;
3967;SDS011;9221;42.646;23.380;2022-08-16T01:08:02;11.23;;;6.43;;
3967;SDS011;9221;42.646;23.380;2022-08-16T01:10:30;14.13;;;6.67;;
3967;SDS011;9221;42.646;23.380;2022-08-16T01:12:57;12.90;;;6.93;;
3967;SDS011;9221;42.646;23.380;2022-08-16T01:15:25;14.03;;;7.00;;
3967;SDS011;9221;42.646;23.380;2022-08-16T01:17:51;12.50;;;6.30;;
3967;SDS011;9221;42.646;23.380;2022-08-16T01:20:18;10.90;;;6.00;;
3967;SDS011;9221;42.646;23.380;2022-08-16T01:23:07;19.10;;;6.90;;
3967;SDS011;9221;42.646;23.380;2022-08-16T01:25:39;11.67;;;7.37;;
3967;SDS011;9221;42.646;23.380;2022-08-16T01:28:11;13.10;;;6.90;;
3967;SDS011;9221;42.646;23.380;2022-08-16T01:30:40;18.73;;;7.40;;
3967;SDS011;9221;42.646;23.380;2022-08-16T01:33:08;15.37;;;6.90;;
3967;SDS011;9221;42.646;23.380;2022-08-16T01:35:40;12.90;;;7.20;;
3967;SDS011;9221;42.646;23.380;2022-08-16T01:38:32;15.23;;;6.93;;
3967;SDS011;9221;42.646;23.380;2022-08-16T01:41:04;14.47;;;7.13;;
3967;SDS011;9221;42.646;23.380;2022-08-16T01:43:33;13.43;;;7.00;;
3967;SDS011;9221;42.646;23.380;2022-08-16T01:46:01;14.27;;;6.50;;
3967;SDS011;9221;42.646;23.380;2022-08-16T01:48:29;13.03;;;7.23;;
3967;SDS011;9221;42.646;23.380;2022-08-16T01:50:57;13.87;;;6.57;;
3967;SDS011;9221;42.646;23.380;2022-08-16T01:53:23;12.10;;;7.30;;
3967;SDS011;9221;42.646;23.380;2022-08-16T01:55:50;15.20;;;7.90;;
3967;SDS011;9221;42.646;23.380;2022-08-16T01:58:16;14.50;;;6.43;;
3967;SDS011;9221;42.646;23.380;2022-08-16T02:00:43;13.53;;;6.97;;
3967;SDS011;9221;42.646;23.380;2022-08-16T02:03:09;16.23;;;7.33;;
3967;SDS011;9221;42.646;23.380;2022-08-16T02:05:35;12.10;;;6.50;;
3967;SDS011;9221;42.646;23.380;2022-08-16T02:08:01;12.03;;;6.93;;
3967;SDS011;9221;42.646;23.380;2022-08-16T02:10:27;15.00;;;6.53;;
3967;SDS011;9221;42.646;23.380;2022-08-16T02:12:52;16.43;;;7.07;;
3967;SDS011;9221;42.646;23.380;2022-08-16T02:15:20;25.10;;;6.73;;
3967;SDS011;9221;42.646;23.380;2022-08-16T02:17:48;17.53;;;7.27;;
3967;SDS011;9221;42.646;23.380;2022-08-16T02:20:13;17.53;;;8.07;;
3967;SDS011;9221;42.646;23.380;2022-08-16T02:22:40;15.07;;;7.03;;
3967;SDS011;9221;42.646;23.380;2022-08-16T02:25:08;14.97;;;8.00;;
3967;SDS011;9221;42.646;23.380;2022-08-16T02:27:40;18.83;;;8.20;;
3967;SDS011;9221;42.646;23.380;2022-08-16T02:30:08;13.77;;;7.40;;
3967;SDS011;9221;42.646;23.380;2022-08-16T02:32:38;15.03;;;7.90;;
3967;SDS011;9221;42.646;23.380;2022-08-16T02:35:04;14.20;;;7.50;;
3967;SDS011;9221;42.646;23.380;2022-08-16T02:37:30;19.07;;;8.37;;
3967;SDS011;9221;42.646;23.380;2022-08-16T02:39:55;23.97;;;9.13;;
3967;SDS011;9221;42.646;23.380;2022-08-16T02:42:21;16.87;;;8.43;;
3967;SDS011;9221;42.646;23.380;2022-08-16T02:44:46;21.80;;;8.80;;
3967;SDS011;9221;42.646;23.380;2022-08-16T02:47:12;14.03;;;7.40;;
3967;SDS011;9221;42.646;23.380;2022-08-16T02:49:37;15.57;;;8.50;;
3967;SDS011;9221;42.646;23.380;2022-08-16T02:52:03;14.57;;;7.90;;
3967;SDS011;9221;42.646;23.380;2022-08-16T02:54:29;16.20;;;8.47;;
3967;SDS011;9221;42.646;23.380;2022-08-16T02:56:54;23.67;;;9.30;;
3967;SDS011;9221;42.646;23.380;2022-08-16T02:59:20;19.13;;;9.30;;
3967;SDS011;9221;42.646;23.380;2022-08-16T03:01:45;17.03;;;7.70;;
3967;SDS011;9221;42.646;23.380;2022-08-16T03:04:11;14.77;;;8.60;;
3967;SDS011;9221;42.646;23.380;2022-08-16T03:06:37;13.90;;;7.47;;
3967;SDS011;9221;42.646;23.380;2022-08-16T03:09:03;14.03;;;8.20;;
3967;SDS011;9221;42.646;23.380;2022-08-16T03:11:29;18.57;;;8.77;;
3967;SDS011;9221;42.646;23.380;2022-08-16T03:13:55;15.40;;;8.97;;
3967;SDS011;9221;42.646;23.380;2022-08-16T03:16:21;15.17;;;8.53;;
3967;SDS011;9221;42.646;23.380;2022-08-16T03:18:47;17.10;;;8.43;;
3967;SDS011;9221;42.646;23.380;2022-08-16T03:21:13;16.67;;;8.77;;
3967;SDS011;9221;42.646;23.380;2022-08-16T03:23:39;19.40;;;9.20;;
3967;SDS011;9221;42.646;23.380;2022-08-16T03:26:05;16.50;;;8.27;;
3967;SDS011;9221;42.646;23.380;2022-08-16T03:28:31;19.40;;;8.87;;
3967;SDS011;9221;42.646;23.380;2022-08-16T03:30:56;19.53;;;8.77;;
3967;SDS011;9221;42.646;23.380;2022-08-16T03:33:22;14.53;;;8.40;;
3967;SDS011;9221;42.646;23.380;2022-08-16T03:35:48;17.50;;;8.73;;
3967;SDS011;9221;42.646;23.380;2022-08-16T03:38:15;14.30;;;8.50;;
3967;SDS011;9221;42.646;23.380;2022-08-16T03:40:41;18.70;;;9.00;;
3967;SDS011;9221;42.646;23.380;2022-08-16T03:43:07;17.23;;;8.63;;
3967;SDS011;9221;42.646;23.380;2022-08-16T03:45:37;14.50;;;8.27;;
3967;SDS011;9221;42.646;23.380;2022-08-16T03:48:05;17.30;;;8.40;;
3967;SDS011;9221;42.646;23.380;2022-08-16T03:50:32;18.43;;;9.37;;
3967;SDS011;9221;42.646;23.380;2022-08-16T03:52:57;16.80;;;9.00;;
3967;SDS011;9221;42.646;23.380;2022-08-16T03:55:23;17.10;;;8.17;;
3967;SDS011;9221;42.646;23.380;2022-08-16T03:57:49;13.97;;;7.97;;
3967;SDS011;9221;42.646;23.380;2022-08-16T04:00:19;17.80;;;8.77;;
3967;SDS011;9221;42.646;23.380;2022-08-16T04:02:47;11.43;;;6.50;;
3967;SDS011;9221;42.646;23.380;2022-08-16T04:05:14;12.87;;;7.70;;
3967;SDS011;9221;42.646;23.380;2022-08-16T04:08:00;16.00;;;8.40;;
3967;SDS011;9221;42.646;23.380;2022-08-16T04:10:26;15.53;;;7.73;;
3967;SDS011;9221;42.646;23.380;2022-08-16T04:12:52;12.37;;;7.10;;
3967;SDS011;9221;42.646;23.380;2022-08-16T04:15:18;15.00;;;8.03;;
3967;SDS011;9221;42.646;23.380;2022-08-16T04:17:44;17.80;;;8.73;;
3967;SDS011;9221;42.646;23.380;2022-08-16T04:20:10;19.03;;;9.03;;
3967;SDS011;9221;42.646;23.380;2022-08-16T04:22:37;20.10;;;7.77;;
3967;SDS011;9221;42.646;23.380;2022-08-16T04:25:04;17.50;;;7.63;;
3967;SDS011;9221;42.646;23.380;2022-08-16T04:27:31;14.07;;;7.70;;
3967;SDS011;9221;42.646;23.380;2022-08-16T04:29:57;14.77;;;7.20;;
3967;SDS011;9221;42.646;23.380;2022-08-16T04:32:22;22.60;;;9.13;;
3967;SDS011;9221;42.646;23.380;2022-08-16T04:34:48;15.57;;;8.70;;
3967;SDS011;9221;42.646;23.380;2022-08-16T04:37:13;13.97;;;7.93;;
3967;SDS011;9221;42.646;23.380;2022-08-16T04:39:39;16.10;;;8.00;;
3967;SDS011;9221;42.646;23.380;2022-08-16T04:42:04;23.43;;;9.30;;
3967;SDS011;9221;42.646;23.380;2022-08-16T04:44:30;16.70;;;8.17;;
3967;SDS011;9221;42.646;23.380;2022-08-16T04:46:56;19.37;;;8.30;;
3967;SDS011;9221;42.646;23.380;2022-08-16T04:49:22;14.13;;;7.77;;
3967;SDS011;9221;42.646;23.380;2022-08-16T04:51:48;20.93;;;8.60;;
3967;SDS011;9221;42.646;23.380;2022-08-16T04:54:14;13.67;;;8.07;;
3967;SDS011;9221;42.646;23.380;2022-08-16T04:56:40;18.30;;;8.97;;
3967;SDS011;9221;42.646;23.380;2022-08-16T04:59:06;21.40;;;8.63;;
3967;SDS011;9221;42.646;23.380;2022-08-16T05:01:32;17.37;;;8.67;;
3967;SDS011;9221;42.646;23.380;2022-08-16T05:03:58;24.43;;;10.03;;
3967;SDS011;9221;42.646;23.380;2022-08-16T05:06:24;28.70;;;10.47;;
3967;SDS011;9221;42.646;23.380;2022-08-16T05:08:50;24.10;;;10.90;;
3967;SDS011;9221;42.646;23.380;2022-08-16T05:11:16;23.27;;;10.80;;
3967;SDS011;9221;42.646;23.380;2022-08-16T05:13:43;22.77;;;10.63;;
3967;SDS011;9221;42.646;23.380;2022-08-16T05:16:24;24.53;;;10.80;;
3967;SDS011;9221;42.646;23.380;2022-08-16T05:18:53;27.03;;;9.80;;
3967;SDS011;9221;42.646;23.380;2022-08-16T05:21:19;18.70;;;10.30;;
3967;SDS011;9221;42.646;23.380;2022-08-16T05:23:46;25.73;;;10.20;;
3967;SDS011;9221;42.646;23.380;2022-08-16T05:26:11;25.47;;;10.53;;
3967;SDS011;9221;42.646;23.380;2022-08-16T05:28:37;19.30;;;9.77;;
3967;SDS011;9221;42.646;23.380;2022-08-16T05:31:02;23.60;;;9.60;;
3967;SDS011;9221;42.646;23.380;2022-08-16T05:33:28;19.10;;;10.60;;
3967;SDS011;9221;42.646;23.380;2022-08-16T05:35:53;19.77;;;9.50;;
3967;SDS011;9221;42.646;23.380;2022-08-16T05:38:19;20.70;;;9.77;;
3967;SDS011;9221;42.646;23.380;2022-08-16T05:40:51;22.03;;;9.43;;
3967;SDS011;9221;42.646;23.380;2022-08-16T05:43:17;19.20;;;10.20;;
3967;SDS011;9221;42.646;23.380;2022-08-16T05:45:43;17.43;;;9.60;;
3967;SDS011;9221;42.646;23.380;2022-08-16T05:48:09;18.80;;;9.00;;
3967;SDS011;9221;42.646;23.380;2022-08-16T05:50:34;25.03;;;9.93;;
3967;SDS011;9221;42.646;23.380;2022-08-16T05:52:59;22.60;;;8.90;;
3967;SDS011;9221;42.646;23.380;2022-08-16T05:55:25;21.03;;;10.00;;
3967;SDS011;9221;42.646;23.380;2022-08-16T05:57:50;27.43;;;11.00;;
3967;SDS011;9221;42.646;23.380;2022-08-16T06:00:16;18.77;;;9.80;;
3967;SDS011;9221;42.646;23.380;2022-08-16T06:02:41;22.63;;;10.40;;
3967;SDS011;9221;42.646;23.380;2022-08-16T06:05:08;18.50;;;10.23;;
3967;SDS011;9221;42.646;23.380;2022-08-16T06:07:34;20.23;;;9.93;;
3967;SDS011;9221;42.646;23.380;2022-08-16T06:09:59;26.50;;;11.03;;
3967;SDS011;9221;42.646;23.380;2022-08-16T06:12:25;18.43;;;9.63;;
3967;SDS011;9221;42.646;23.380;2022-08-16T06:14:52;17.77;;;9.70;;
3967;SDS011;9221;42.646;23.380;2022-08-16T06:17:18;19.00;;;8.90;;
3967;SDS011;9221;42.646;23.380;2022-08-16T06:19:43;25.23;;;8.27;;
3967;SDS011;9221;42.646;23.380;2022-08-16T06:22:09;18.87;;;9.50;;
3967;SDS011;9221;42.646;23.380;2022-08-16T06:24:35;25.30;;;9.80;;
3967;SDS011;9221;42.646;23.380;2022-08-16T06:27:01;21.23;;;9.17;;
3967;SDS011;9221;42.646;23.380;2022-08-16T06:29:26;17.53;;;9.07;;
3967;SDS011;9221;42.646;23.380;2022-08-16T06:31:52;15.50;;;8.57;;
3967;SDS011;9221;42.646;23.380;2022-08-16T06:34:18;22.73;;;10.10;;
3967;SDS011;9221;42.646;23.380;2022-08-16T06:36:45;18.10;;;9.50;;
3967;SDS011;9221;42.646;23.380;2022-08-16T06:39:10;17.47;;;8.60;;
3967;SDS011;9221;42.646;23.380;2022-08-16T06:41:35;15.17;;;8.10;;
3967;SDS011;9221;42.646;23.380;2022-08-16T06:44:01;17.93;;;9.00;;
3967;SDS011;9221;42.646;23.380;2022-08-16T06:46:28;18.60;;;8.70;;
3967;SDS011;9221;42.646;23.380;2022-08-16T06:49:07;15.40;;;8.37;;
3967;SDS011;9221;42.646;23.380;2022-08-16T06:51:35;19.47;;;8.73;;
3967;SDS011;9221;42.646;23.380;2022-08-16T06:54:19;19.60;;;9.53;;
3967;SDS011;9221;42.646;23.380;2022-08-16T06:56:44;20.20;;;9.07;;
3967;SDS011;9221;42.646;23.380;2022-08-16T06:59:10;18.53;;;8.57;;
3967;SDS011;9221;42.646;23.380;2022-08-16T07:01:35;17.03;;;8.93;;
3967;SDS011;9221;42.646;23.380;2022-08-16T07:04:02;17.07;;;8.60;;
3967;SDS011;9221;42.646;23.380;2022-08-16T07:06:28;24.83;;;9.13;;
3967;SDS011;9221;42.646;23.380;2022-08-16T07:08:55;18.67;;;8.87;;
3967;SDS011;9221;42.646;23.380;2022-08-16T07:11:21;16.17;;;9.13;;
3967;SDS011;9221;42.646;23.380;2022-08-16T07:13:47;17.60;;;9.03;;
3967;SDS011;9221;42.646;23.380;2022-08-16T07:16:14;21.43;;;8.77;;
3967;SDS011;9221;42.646;23.380;2022-08-16T07:18:40;13.60;;;8.33;;
3967;SDS011;9221;42.646;23.380;2022-08-16T07:21:10;17.83;;;8.83;;
3967;SDS011;9221;42.646;23.380;2022-08-16T07:23:37;19.83;;;10.03;;
3967;SDS011;9221;42.646;23.380;2022-08-16T07:26:03;20.60;;;8.27;;
3967;SDS011;9221;42.646;23.380;2022-08-16T07:28:30;15.70;;;8.23;;
3967;SDS011;9221;42.646;23.380;2022-08-16T07:30:56;22.07;;;9.00;;
3967;SDS011;9221;42.646;23.380;2022-08-16T07:33:21;20.30;;;9.50;;
3967;SDS011;9221;42.646;23.380;2022-08-16T07:35:47;16.13;;;8.10;;
3967;SDS011;9221;42.646;23.380;2022-08-16T07:38:12;14.63;;;7.60;;
3967;SDS011;9221;42.646;23.380;2022-08-16T07:40:38;16.60;;;8.30;;
3967;SDS011;9221;42.646;23.380;2022-08-16T07:43:03;15.33;;;8.47;;
3967;SDS011;9221;42.646;23.380;2022-08-16T07:45:29;14.43;;;8.57;;
3967;SDS011;9221;42.646;23.380;2022-08-16T07:47:55;20.67;;;8.50;;
3967;SDS011;9221;42.646;23.380;2022-08-16T07:50:20;17.00;;;8.40;;
3967;SDS011;9221;42.646;23.380;2022-08-16T07:52:46;14.37;;;8.30;;
3967;SDS011;9221;42.646;23.380;2022-08-16T07:55:13;19.90;;;8.97;;
3967;SDS011;9221;42.646;23.380;2022-08-16T07:57:40;16.10;;;8.80;;
3967;SDS011;9221;42.646;23.380;2022-08-16T08:00:06;17.40;;;8.30;;
3967;SDS011;9221;42.646;23.380;2022-08-16T08:02:33;14.63;;;8.53;;
3967;SDS011;9221;42.646;23.380;2022-08-16T08:04:58;19.43;;;8.50;;
3967;SDS011;9221;42.646;23.380;2022-08-16T08:07:24;24.83;;;9.10;;
3967;SDS011;9221;42.646;23.380;2022-08-16T08:09:50;18.80;;;8.40;;
3967;SDS011;9221;42.646;23.380;2022-08-16T08:12:16;16.43;;;8.50;;
3967;SDS011;9221;42.646;23.380;2022-08-16T08:14:44;14.00;;;8.00;;
3967;SDS011;9221;42.646;23.380;2022-08-16T08:17:10;14.33;;;8.33;;
3967;SDS011;9221;42.646;23.380;2022-08-16T08:19:36;25.40;;;7.07;;
3967;SDS011;9221;42.646;23.380;2022-08-16T08:22:02;13.17;;;7.50;;
3967;SDS011;9221;42.646;23.380;2022-08-16T08:24:29;18.20;;;7.67;;
3967;SDS011;9221;42.646;23.380;2022-08-16T08:26:57;12.77;;;8.27;;
3967;SDS011;9221;42.646;23.380;2022-08-16T08:29:23;14.33;;;7.67;;
3967;SDS011;9221;42.646;23.380;2022-08-16T08:31:49;15.50;;;7.53;;
3967;SDS011;9221;42.646;23.380;2022-08-16T08:34:16;15.17;;;7.83;;
3967;SDS011;9221;42.646;23.380;2022-08-16T08:36:42;16.97;;;7.73;;
3967;SDS011;9221;42.646;23.380;2022-08-16T08:39:07;13.70;;;7.60;;
3967;SDS011;9221;42.646;23.380;2022-08-16T08:41:33;19.07;;;7.40;;
3967;SDS011;9221;42.646;23.380;2022-08-16T08:43:58;14.40;;;7.33;;
3967;SDS011;9221;42.646;23.380;2022-08-16T08:46:24;11.50;;;6.97;;
3967;SDS011;9221;42.646;23.380;2022-08-16T08:48:51;17.77;;;6.20;;
3967;SDS011;9221;42.646;23.380;2022-08-16T08:51:18;11.80;;;6.60;;
3967;SDS011;9221;42.646;23.380;2022-08-16T08:53:44;11.43;;;6.20;;
3967;SDS011;9221;42.646;23.380;2022-08-16T08:56:11;11.40;;;6.50;;
3967;SDS011;9221;42.646;23.380;2022-08-16T08:58:37;15.43;;;6.10;;
3967;SDS011;9221;42.646;23.380;2022-08-16T09:01:04;16.50;;;6.40;;
3967;SDS011;9221;42.646;23.380;2022-08-16T09:03:31;8.30;;;5.80;;
3967;SDS011;9221;42.646;23.380;2022-08-16T09:05:58;11.37;;;6.60;;
3967;SDS011;9221;42.646;23.380;2022-08-16T09:08:24;12.33;;;5.93;;
3967;SDS011;9221;42.646;23.380;2022-08-16T09:10:51;11.90;;;5.10;;
3967;SDS011;9221;42.646;23.380;2022-08-16T09:13:21;11.47;;;5.50;;
3967;SDS011;9221;42.646;23.380;2022-08-16T09:15:48;8.13;;;5.20;;
3967;SDS011;9221;42.646;23.380;2022-08-16T09:18:14;8.87;;;4.90;;
3967;SDS011;9221;42.646;23.380;2022-08-16T09:20:41;8.27;;;4.73;;
3967;SDS011;9221;42.646;23.380;2022-08-16T09:23:07;11.77;;;5.37;;
3967;SDS011;9221;42.646;23.380;2022-08-16T09:25:33;16.33;;;5.77;;
3967;SDS011;9221;42.646;23.380;2022-08-16T09:27:58;11.90;;;5.30;;
3967;SDS011;9221;42.646;23.380;2022-08-16T09:30:24;12.33;;;5.40;;
3967;SDS011;9221;42.646;23.380;2022-08-16T09:32:50;8.80;;;4.10;;
3967;SDS011;9221;42.646;23.380;2022-08-16T09:35:19;13.70;;;4.73;;
3967;SDS011;9221;42.646;23.380;2022-08-16T09:37:45;8.80;;;4.87;;
3967;SDS011;9221;42.646;23.380;2022-08-16T09:40:11;9.07;;;4.83;;
3967;SDS011;9221;42.646;23.380;2022-08-16T09:42:38;9.00;;;4.57;;
3967;SDS011;9221;42.646;23.380;2022-08-16T09:45:05;10.90;;;4.80;;
3967;SDS011;9221;42.646;23.380;2022-08-16T09:47:32;8.20;;;4.43;;
3967;SDS011;9221;42.646;23.380;2022-08-16T09:50:08;8.90;;;3.93;;
3967;SDS011;9221;42.646;23.380;2022-08-16T09:52:35;8.17;;;4.10;;
3967;SDS011;9221;42.646;23.380;2022-08-16T09:55:05;7.20;;;4.60;;
3967;SDS011;9221;42.646;23.380;2022-08-16T09:57:32;7.77;;;4.00;;
3967;SDS011;9221;42.646;23.380;2022-08-16T09:59:58;10.20;;;4.00;;
3967;SDS011;9221;42.646;23.380;2022-08-16T10:02:27;7.13;;;3.93;;
3967;SDS011;9221;42.646;23.380;2022-08-16T10:04:53;7.17;;;4.37;;
3967;SDS011;9221;42.646;23.380;2022-08-16T10:07:20;7.40;;;4.10;;
3967;SDS011;9221;42.646;23.380;2022-08-16T10:09:46;8.97;;;3.53;;
3967;SDS011;9221;42.646;23.380;2022-08-16T10:12:11;5.30;;;3.93;;
3967;SDS011;9221;42.646;23.380;2022-08-16T10:14:56;6.40;;;3.60;;
3967;SDS011;9221;42.646;23.380;2022-08-16T10:17:21;7.23;;;4.13;;
3967;SDS011;9221;42.646;23.380;2022-08-16T10:19:48;8.27;;;4.00;;
3967;SDS011;9221;42.646;23.380;2022-08-16T10:22:15;7.03;;;4.13;;
3967;SDS011;9221;42.646;23.380;2022-08-16T10:24:41;6.32;;;3.53;;
3967;SDS011;9221;42.646;23.380;2022-08-16T10:27:07;5.95;;;4.25;;
3967;SDS011;9221;42.646;23.380;2022-08-16T10:29:32;8.02;;;4.75;;
3967;SDS011;9221;42.646;23.380;2022-08-16T10:31:58;8.75;;;3.70;;
3967;SDS011;9221;42.646;23.380;2022-08-16T10:34:24;7.38;;;4.32;;
3967;SDS011;9221;42.646;23.380;2022-08-16T10:36:50;6.40;;;3.10;;
3967;SDS011;9221;42.646;23.380;2022-08-16T10:39:15;11.80;;;4.35;;
3967;SDS011;9221;42.646;23.380;2022-08-16T10:41:41;13.88;;;4.28;;
3967;SDS011;9221;42.646;23.380;2022-08-16T10:44:06;5.88;;;3.95;;
3967;SDS011;9221;42.646;23.380;2022-08-16T10:46:32;5.68;;;3.08;;
3967;SDS011;9221;42.646;23.380;2022-08-16T10:48:58;11.25;;;3.92;;
3967;SDS011;9221;42.646;23.380;2022-08-16T10:51:24;8.52;;;3.88;;
3967;SDS011;9221;42.646;23.380;2022-08-16T10:53:49;4.65;;;3.47;;
3967;SDS011;9221;42.646;23.380;2022-08-16T10:56:15;6.22;;;3.92;;
3967;SDS011;9221;42.646;23.380;2022-08-16T10:58:40;7.32;;;3.95;;
3967;SDS011;9221;42.646;23.380;2022-08-16T11:01:06;8.53;;;3.43;;
3967;SDS011;9221;42.646;23.380;2022-08-16T11:03:34;5.10;;;3.80;;
3967;SDS011;9221;42.646;23.380;2022-08-16T11:06:01;7.90;;;4.17;;
3967;SDS011;9221;42.646;23.380;2022-08-16T11:08:29;10.50;;;4.03;;
3967;SDS011;9221;42.646;23.380;2022-08-16T11:10:55;8.30;;;4.47;;
3967;SDS011;9221;42.646;23.380;2022-08-16T11:13:21;12.00;;;3.90;;
3967;SDS011;9221;42.646;23.380;2022-08-16T11:15:49;6.53;;;3.67;;
3967;SDS011;9221;42.646;23.380;2022-08-16T11:18:15;8.50;;;4.20;;
3967;SDS011;9221;42.646;23.380;2022-08-16T11:20:41;7.10;;;4.13;;
3967;SDS011;9221;42.646;23.380;2022-08-16T11:23:08;7.50;;;3.90;;
3967;SDS011;9221;42.646;23.380;2022-08-16T11:25:35;9.95;;;3.67;;
3967;SDS011;9221;42.646;23.380;2022-08-16T11:28:01;6.60;;;4.07;;
3967;SDS011;9221;42.646;23.380;2022-08-16T11:30:28;7.22;;;3.22;;
3967;SDS011;9221;42.646;23.380;2022-08-16T11:32:55;7.93;;;3.35;;
3967;SDS011;9221;42.646;23.380;2022-08-16T11:35:25;10.18;;;3.90;;
3967;SDS011;9221;42.646;23.380;2022-08-16T11:37:56;5.70;;;3.45;;
3967;SDS011;9221;42.646;23.380;2022-08-16T11:40:31;7.43;;;3.72;;
3967;SDS011;9221;42.646;23.380;2022-08-16T11:43:02;8.45;;;4.28;;
3967;SDS011;9221;42.646;23.380;2022-08-16T11:45:30;6.00;;;3.47;;
3967;SDS011;9221;42.646;23.380;2022-08-16T11:47:57;7.70;;;3.55;;
3967;SDS011;9221;42.646;23.380;2022-08-16T11:50:24;6.40;;;3.88;;
3967;SDS011;9221;42.646;23.380;2022-08-16T11:52:49;5.43;;;3.85;;
3967;SDS011;9221;42.646;23.380;2022-08-16T11:55:15;8.70;;;3.55;;
3967;SDS011;9221;42.646;23.380;2022-08-16T11:57:41;5.87;;;3.63;;
3967;SDS011;9221;42.646;23.380;2022-08-16T12:00:09;12.97;;;3.80;;
3967;SDS011;9221;42.646;23.380;2022-08-16T12:02:38;7.77;;;3.13;;
3967;SDS011;9221;42.646;23.380;2022-08-16T12:05:05;8.47;;;3.63;;
3967;SDS011;9221;42.646;23.380;2022-08-16T12:07:32;8.23;;;3.20;;
3967;SDS011;9221;42.646;23.380;2022-08-16T12:09:58;5.90;;;3.10;;
3967;SDS011;9221;42.646;23.380;2022-08-16T12:12:23;5.00;;;2.70;;
3967;SDS011;9221;42.646;23.380;2022-08-16T12:14:50;5.13;;;2.87;;
3967;SDS011;9221;42.646;23.380;2022-08-16T12:17:15;6.17;;;2.60;;
3967;SDS011;9221;42.646;23.380;2022-08-16T12:19:42;5.87;;;2.87;;
3967;SDS011;9221;42.646;23.380;2022-08-16T12:22:08;5.43;;;3.10;;
3967;SDS011;9221;42.646;23.380;2022-08-16T12:24:33;5.10;;;2.70;;
3967;SDS011;9221;42.646;23.380;2022-08-16T12:26:59;6.37;;;3.27;;
3967;SDS011;9221;42.646;23.380;2022-08-16T12:29:25;8.73;;;3.20;;
3967;SDS011;9221;42.646;23.380;2022-08-16T12:31:50;5.57;;;3.17;;
3967;SDS011;9221;42.646;23.380;2022-08-16T12:34:16;10.95;;;3.30;;
3967;SDS011;9221;42.646;23.380;2022-08-16T12:36:43;5.45;;;3.35;;
3967;SDS011;9221;42.646;23.380;2022-08-16T12:39:10;5.55;;;3.25;;
3967;SDS011;9221;42.646;23.380;2022-08-16T12:41:37;9.25;;;3.28;;
3967;SDS011;9221;42.646;23.380;2022-08-16T12:44:04;4.57;;;3.20;;
3967;SDS011;9221;42.646;23.380;2022-08-16T12:46:30;6.28;;;3.47;;
3967;SDS011;9221;42.646;23.380;2022-08-16T12:48:58;6.85;;;2.92;;
3967;SDS011;9221;42.646;23.380;2022-08-16T12:51:30;6.50;;;3.38;;
3967;SDS011;9221;42.646;23.380;2022-08-16T12:53:59;5.00;;;2.95;;
3967;SDS011;9221;42.646;23.380;2022-08-16T12:56:29;5.60;;;3.13;;
3967;SDS011;9221;42.646;23.380;2022-08-16T12:58:57;7.53;;;3.13;;
3967;SDS011;9221;42.646;23.380;2022-08-16T13:01:25;6.22;;;3.40;;
3967;SDS011;9221;42.646;23.380;2022-08-16T13:03:54;6.82;;;3.60;;
3967;SDS011;9221;42.646;23.380;2022-08-16T13:06:21;5.40;;;3.15;;
3967;SDS011;9221;42.646;23.380;2022-08-16T13:08:47;6.63;;;3.35;;
3967;SDS011;9221;42.646;23.380;2022-08-16T13:11:15;5.70;;;3.70;;
3967;SDS011;9221;42.646;23.380;2022-08-16T13:13:45;5.40;;;2.83;;
3967;SDS011;9221;42.646;23.380;2022-08-16T13:16:10;9.00;;;3.43;;
3967;SDS011;9221;42.646;23.380;2022-08-16T13:18:36;5.47;;;3.05;;
3967;SDS011;9221;42.646;23.380;2022-08-16T13:21:03;5.25;;;3.00;;
3967;SDS011;9221;42.646;23.380;2022-08-16T13:23:30;8.52;;;2.67;;
3967;SDS011;9221;42.646;23.380;2022-08-16T13:25:56;6.32;;;3.72;;
3967;SDS011;9221;42.646;23.380;2022-08-16T13:28:22;3.95;;;2.72;;
3967;SDS011;9221;42.646;23.380;2022-08-16T13:30:50;7.43;;;3.17;;
3967;SDS011;9221;42.646;23.380;2022-08-16T13:33:19;3.88;;;3.08;;
3967;SDS011;9221;42.646;23.380;2022-08-16T13:35:54;10.10;;;2.83;;
3967;SDS011;9221;42.646;23.380;2022-08-16T13:38:21;8.65;;;2.97;;
3967;SDS011;9221;42.646;23.380;2022-08-16T13:40:47;6.60;;;2.97;;
3967;SDS011;9221;42.646;23.380;2022-08-16T13:43:13;14.43;;;3.13;;
3967;SDS011;9221;42.646;23.380;2022-08-16T13:45:39;6.45;;;3.00;;
3967;SDS011;9221;42.646;23.380;2022-08-16T13:48:04;6.80;;;2.72;;
3967;SDS011;9221;42.646;23.380;2022-08-16T13:50:31;3.75;;;2.33;;
3967;SDS011;9221;42.646;23.380;2022-08-16T13:52:57;5.57;;;2.60;;
3967;SDS011;9221;42.646;23.380;2022-08-16T13:55:23;6.93;;;2.38;;
3967;SDS011;9221;42.646;23.380;2022-08-16T13:57:49;7.28;;;2.10;;
3967;SDS011;9221;42.646;23.380;2022-08-16T14:00:15;5.93;;;2.20;;
3967;SDS011;9221;42.646;23.380;2022-08-16T14:02:41;6.97;;;2.10;;
3967;SDS011;9221;42.646;23.380;2022-08-16T14:05:07;7.53;;;2.70;;
3967;SDS011;9221;42.646;23.380;2022-08-16T14:07:33;5.75;;;2.38;;
3967;SDS011;9221;42.646;23.380;2022-08-16T14:10:01;5.85;;;2.30;;
3967;SDS011;9221;42.646;23.380;2022-08-16T14:12:28;6.90;;;2.40;;
3967;SDS011;9221;42.646;23.380;2022-08-16T14:14:55;8.43;;;2.40;;
3967;SDS011;9221;42.646;23.380;2022-08-16T14:17:22;7.50;;;2.35;;
3967;SDS011;9221;42.646;23.380;2022-08-16T14:19:49;4.95;;;2.13;;
3967;SDS011;9221;42.646;23.380;2022-08-16T14:22:16;6.03;;;2.47;;
3967;SDS011;9221;42.646;23.380;2022-08-16T14:24:47;4.40;;;2.20;;
3967;SDS011;9221;42.646;23.380;2022-08-16T14:27:18;5.63;;;2.55;;
3967;SDS011;9221;42.646;23.380;2022-08-16T14:29:46;7.47;;;2.67;;
3967;SDS011;9221;42.646;23.380;2022-08-16T14:32:12;5.60;;;2.30;;
3967;SDS011;9221;42.646;23.380;2022-08-16T14:34:38;9.23;;;2.65;;
3967;SDS011;9221;42.646;23.380;2022-08-16T14:37:03;7.97;;;2.60;;
3967;SDS011;9221;42.646;23.380;2022-08-16T14:39:30;8.57;;;2.60;;
3967;SDS011;9221;42.646;23.380;2022-08-16T14:42:04;7.83;;;2.53;;
3967;SDS011;9221;42.646;23.380;2022-08-16T14:44:32;5.90;;;2.60;;
3967;SDS011;9221;42.646;23.380;2022-08-16T14:46:58;5.90;;;3.07;;
3967;SDS011;9221;42.646;23.380;2022-08-16T14:49:23;6.53;;;2.97;;